Vejrstation Sortsø Strand
Vejrstation Sortsø Strands historiske vejrdata
 
Daily Summary for January 20, 2021 Units:  Metric    English   Both
Daily Weekly Monthly Yearly Custom
  Current: High: Low: Average:
Temperature: 6.1 °C 7.4 °C 3.2 °C 5.4 °C
Dew Point: 3.9 °C 5.3 °C 2.3 °C 4.1 °C
Humidity: 86% 94% 83% 91%
Wind Speed: 20km/h 44km/h 0km/h 23.8km/h
Wind Gust: 11km/h 25km/h - -
WindSSE - - SSE
Pressure: 993.5 hPa 997.3 hPa 993.5 hPa -
Precipitation: 4.57 mm      
Historical Graphs
 
 
Tabular Data for January 20, 2021
Time Temperature Dew Point Pressure Wind Wind Speed Wind Gust Humidity Rainfall Rate (Hourly) solar
00:04 3.2 °C 2.3 °C 997.3 hPa Calm     94% 0.51 mm 0.00 W/m2
00:09 3.2 °C 2.3 °C 997.3 hPa Calm     94% 0.51 mm 0.00 W/m2
00:14 3.2 °C 2.3 °C 997.3 hPa Calm     94% 0.51 mm 0.00 W/m2
00:19 3.2 °C 2.3 °C 997.2 hPa Calm     94% 0.51 mm 0.00 W/m2
00:24 3.2 °C 2.3 °C 997.2 hPa Calm     94% 0.51 mm 0.00 W/m2
00:29 3.3 °C 2.4 °C 997.2 hPa Calm     94% 0.51 mm 0.00 W/m2
00:34 3.3 °C 2.4 °C 997.0 hPa SSE 10 km/h 5 km/h 94% 0.51 mm 0.00 W/m2
00:39 3.3 °C 2.4 °C 997.0 hPa SSE 6 km/h 3 km/h 94% 0.25 mm 0.00 W/m2
00:44 3.4 °C 2.5 °C 997.0 hPa Calm     94% 0.25 mm 0.00 W/m2
00:49 3.3 °C 2.4 °C 997.0 hPa Calm     94% 0.25 mm 0.00 W/m2
00:54 3.3 °C 2.4 °C 996.9 hPa Calm     94% 0.51 mm 0.00 W/m2
00:59 3.4 °C 2.5 °C 996.9 hPa Calm     94% 0.25 mm 0.00 W/m2
01:04 3.4 °C 2.6 °C 996.9 hPa Calm     94% 0.51 mm 0.00 W/m2
01:09 3.5 °C 2.6 °C 996.8 hPa Calm     94% 0.51 mm 0.00 W/m2
01:14 3.6 °C 2.7 °C 996.8 hPa Calm     94% 0.51 mm 0.00 W/m2
01:19 3.7 °C 2.8 °C 996.7 hPa SSE 8 km/h 3 km/h 94% 0.51 mm 0.00 W/m2
01:24 3.7 °C 2.8 °C 996.7 hPa Calm     94% 0.51 mm 0.00 W/m2
01:29 3.8 °C 2.9 °C 996.7 hPa Calm     94% 0.76 mm 0.00 W/m2
01:34 3.8 °C 2.9 °C 996.7 hPa SSE 6 km/h 4 km/h 94% 0.76 mm 0.00 W/m2
01:39 3.9 °C 3.1 °C 996.6 hPa SSE 10 km/h 5 km/h 94% 0.76 mm 0.00 W/m2
01:44 4.0 °C 3.1 °C 996.6 hPa SSE 8 km/h 4 km/h 94% 0.76 mm 0.00 W/m2
01:49 4.0 °C 3.1 °C 996.6 hPa SSE 6 km/h 4 km/h 94% 0.76 mm 0.00 W/m2
01:54 4.1 °C 3.2 °C 996.6 hPa SSE 16 km/h 7 km/h 94% 0.76 mm 0.00 W/m2
01:59 4.2 °C 3.3 °C 996.6 hPa SSE 17 km/h 8 km/h 94% 0.76 mm 0.00 W/m2
02:04 4.3 °C 3.4 °C 996.6 hPa SSE 11 km/h 6 km/h 94% 0.76 mm 0.00 W/m2
02:09 4.3 °C 3.4 °C 996.5 hPa SSE 9 km/h 6 km/h 94% 0.51 mm 0.00 W/m2
02:14 4.4 °C 3.6 °C 996.5 hPa SSE 11 km/h 7 km/h 94% 0.51 mm 0.00 W/m2
02:19 4.6 °C 3.7 °C 996.5 hPa SSE 13 km/h 7 km/h 94% 0.51 mm 0.00 W/m2
02:24 4.7 °C 3.8 °C 996.5 hPa SSE 13 km/h 6 km/h 94% 0.51 mm 0.00 W/m2
02:29 4.8 °C 3.9 °C 996.5 hPa SSE 10 km/h 4 km/h 94% 0.51 mm 0.00 W/m2
02:34 4.9 °C 4.0 °C 996.5 hPa SSE 10 km/h 5 km/h 94% 0.51 mm 0.00 W/m2
02:39 4.9 °C 4.1 °C 996.4 hPa SSE 11 km/h 6 km/h 94% 0.51 mm 0.00 W/m2
02:44 4.9 °C 4.1 °C 996.4 hPa SSE 10 km/h 7 km/h 94% 0.76 mm 0.00 W/m2
02:49 5.1 °C 4.2 °C 996.4 hPa SSE 19 km/h 9 km/h 94% 0.76 mm 0.00 W/m2
02:54 5.1 °C 4.2 °C 996.4 hPa South 17 km/h 9 km/h 94% 0.76 mm 0.00 W/m2
02:59 5.2 °C 4.3 °C 996.4 hPa South 15 km/h 7 km/h 94% 0.51 mm 0.00 W/m2
03:04 5.3 °C 4.4 °C 996.4 hPa South 15 km/h 7 km/h 94% 0.51 mm 0.00 W/m2
03:09 5.3 °C 4.4 °C 996.3 hPa South 15 km/h 7 km/h 94% 0.76 mm 0.00 W/m2
03:14 5.4 °C 4.6 °C 996.3 hPa South 17 km/h 8 km/h 94% 0.76 mm 0.00 W/m2
03:19 5.6 °C 4.7 °C 996.3 hPa South 15 km/h 6 km/h 94% 0.76 mm 0.00 W/m2
03:24 5.6 °C 4.7 °C 996.3 hPa South 17 km/h 9 km/h 94% 0.76 mm 0.00 W/m2
03:29 5.7 °C 4.8 °C 996.3 hPa South 17 km/h 8 km/h 94% 0.76 mm 0.00 W/m2
03:34 5.7 °C 4.8 °C 996.3 hPa South 10 km/h 7 km/h 94% 0.51 mm 0.00 W/m2
03:39 5.7 °C 4.8 °C 996.2 hPa South 17 km/h 8 km/h 94% 0.51 mm 0.00 W/m2
03:44 5.7 °C 4.8 °C 996.2 hPa South 16 km/h 8 km/h 94% 0.51 mm 0.00 W/m2
03:49 5.7 °C 4.8 °C 996.2 hPa South 17 km/h 8 km/h 94% 0.51 mm 0.00 W/m2
03:54 5.8 °C 4.9 °C 996.2 hPa South 19 km/h 11 km/h 94% 0.51 mm 0.00 W/m2
03:59 5.8 °C 4.9 °C 996.2 hPa SSE 11 km/h 9 km/h 94% 0.51 mm 0.00 W/m2
04:04 5.8 °C 4.9 °C 996.2 hPa SSE 21 km/h 10 km/h 94% 0.51 mm 0.00 W/m2
04:09 5.8 °C 4.9 °C 996.1 hPa SSE 20 km/h 11 km/h 94% 0.51 mm 0.00 W/m2
04:14 5.8 °C 4.9 °C 996.2 hPa SSE 24 km/h 8 km/h 94% 0.51 mm 0.00 W/m2
04:19 5.7 °C 4.8 °C 996.1 hPa SSE 18 km/h 8 km/h 94% 0.51 mm 0.00 W/m2
04:24 5.7 °C 4.8 °C 996.1 hPa SSE 19 km/h 10 km/h 94% 0.76 mm 0.00 W/m2
04:29 5.7 °C 4.8 °C 996.1 hPa SSE 15 km/h 11 km/h 94% 0.76 mm 0.00 W/m2
04:34 5.7 °C 4.8 °C 996.1 hPa SSE 23 km/h 10 km/h 94% 0.76 mm 0.00 W/m2
04:39 5.8 °C 4.9 °C 996.1 hPa SSE 24 km/h 14 km/h 94% 0.76 mm 0.00 W/m2
04:44 5.8 °C 4.9 °C 996.0 hPa SSE 24 km/h 12 km/h 94% 0.76 mm 0.00 W/m2
04:49 5.8 °C 4.9 °C 996.1 hPa SSE 19 km/h 13 km/h 94% 0.76 mm 0.00 W/m2
04:54 5.8 °C 4.9 °C 996.1 hPa SSE 15 km/h 8 km/h 94% 0.76 mm 0.00 W/m2
04:59 5.7 °C 4.8 °C 996.0 hPa SSE 23 km/h 11 km/h 94% 1.02 mm 0.00 W/m2
05:04 5.7 °C 4.8 °C 996.1 hPa SSE 22 km/h 12 km/h 94% 1.02 mm 0.00 W/m2
05:09 5.7 °C 4.8 °C 996.0 hPa South 11 km/h 8 km/h 94% 1.02 mm 0.00 W/m2
05:14 5.7 °C 4.8 °C 996.0 hPa SSE 11 km/h 6 km/h 94% 1.02 mm 0.00 W/m2
05:19 5.7 °C 4.8 °C 996.0 hPa SSE 17 km/h 9 km/h 94% 1.02 mm 0.00 W/m2
05:24 5.7 °C 4.8 °C 995.9 hPa SSE 21 km/h 11 km/h 94% 1.02 mm 0.00 W/m2
05:29 5.7 °C 4.8 °C 995.9 hPa South 31 km/h 12 km/h 94% 0.76 mm 0.00 W/m2
05:34 5.7 °C 4.8 °C 995.8 hPa SSE 30 km/h 14 km/h 94% 1.02 mm 0.00 W/m2
05:39 5.7 °C 4.8 °C 995.8 hPa South 23 km/h 15 km/h 94% 1.02 mm 0.00 W/m2
05:44 5.6 °C 4.7 °C 995.7 hPa SSE 32 km/h 18 km/h 94% 1.02 mm 0.00 W/m2
05:49 5.6 °C 4.7 °C 995.7 hPa SSE 32 km/h 13 km/h 94% 1.02 mm 0.00 W/m2
05:54 5.5 °C 4.6 °C 995.7 hPa SSE 28 km/h 14 km/h 94% 0.76 mm 0.00 W/m2
05:59 5.5 °C 4.6 °C 995.6 hPa SSE 24 km/h 12 km/h 94% 0.76 mm 0.00 W/m2
06:04 5.4 °C 4.6 °C 995.6 hPa SSE 26 km/h 16 km/h 94% 0.51 mm 0.00 W/m2
06:09 5.4 °C 4.5 °C 995.6 hPa SSE 34 km/h 17 km/h 94% 0.51 mm 0.00 W/m2
06:14 5.3 °C 4.4 °C 995.5 hPa SSE 19 km/h 13 km/h 94% 0.51 mm 0.00 W/m2
06:19 5.3 °C 4.4 °C 995.5 hPa SSE 39 km/h 23 km/h 94% 0.51 mm 0.00 W/m2
06:24 5.3 °C 4.4 °C 995.5 hPa SSE 39 km/h 18 km/h 94% 0.25 mm 0.00 W/m2
06:29 5.3 °C 4.4 °C 995.5 hPa SSE 32 km/h 16 km/h 94% 0.25 mm 0.00 W/m2
06:34 5.3 °C 4.4 °C 995.5 hPa SSE 32 km/h 19 km/h 94% 0.25 mm 0.00 W/m2
06:39 5.3 °C 4.4 °C 995.5 hPa SSE 32 km/h 15 km/h 94% 0.00 mm 0.00 W/m2
06:44 5.2 °C 4.3 °C 995.5 hPa SSE 32 km/h 14 km/h 94% 0.00 mm 0.00 W/m2
06:49 5.2 °C 4.3 °C 995.4 hPa SSE 32 km/h 18 km/h 94% 0.00 mm 0.00 W/m2
06:54 5.1 °C 4.2 °C 995.4 hPa SSE 32 km/h 17 km/h 94% 0.00 mm 0.00 W/m2
06:59 5.0 °C 4.1 °C 995.4 hPa SSE 35 km/h 20 km/h 94% 0.00 mm 0.00 W/m2
07:04 5.0 °C 4.1 °C 995.4 hPa SSE 32 km/h 16 km/h 94% 0.00 mm 0.00 W/m2
07:09 4.9 °C 4.1 °C 995.4 hPa SSE 28 km/h 17 km/h 94% 0.00 mm 0.00 W/m2
07:14 4.9 °C 4.0 °C 995.4 hPa South 32 km/h 18 km/h 94% 0.00 mm 0.00 W/m2
07:19 4.8 °C 3.9 °C 995.4 hPa SSE 28 km/h 17 km/h 94% 0.00 mm 0.00 W/m2
07:24 4.8 °C 3.9 °C 995.3 hPa SSE 32 km/h 17 km/h 94% 0.00 mm 0.00 W/m2
07:29 4.7 °C 3.8 °C 995.3 hPa SSE 32 km/h 17 km/h 94% 0.00 mm 0.00 W/m2
07:34 4.7 °C 3.8 °C 995.3 hPa SSE 32 km/h 16 km/h 94% 0.00 mm 0.00 W/m2
07:39 4.7 °C 3.8 °C 995.3 hPa SSE 32 km/h 15 km/h 94% 0.00 mm 0.00 W/m2
07:44 4.7 °C 3.8 °C 995.4 hPa SSE 32 km/h 19 km/h 94% 0.00 mm 0.00 W/m2
07:49 4.7 °C 3.8 °C 995.3 hPa South 32 km/h 16 km/h 94% 0.00 mm 0.00 W/m2
07:54 4.7 °C 3.8 °C 995.2 hPa SSE 32 km/h 15 km/h 94% 0.00 mm 0.00 W/m2
07:59 4.7 °C 3.8 °C 995.3 hPa SSE 37 km/h 17 km/h 94% 0.00 mm 0.00 W/m2
08:04 4.6 °C 3.7 °C 995.3 hPa SSE 37 km/h 18 km/h 94% 0.00 mm 0.00 W/m2
08:09 4.6 °C 3.7 °C 995.3 hPa SSE 41 km/h 21 km/h 94% 0.00 mm 0.00 W/m2
08:14 4.6 °C 3.7 °C 995.4 hPa SSE 32 km/h 15 km/h 94% 0.00 mm 0.00 W/m2
08:19 4.6 °C 3.7 °C 995.4 hPa SSE 37 km/h 19 km/h 94% 0.00 mm 0.00 W/m2
08:24 4.6 °C 3.7 °C 995.4 hPa SSE 39 km/h 19 km/h 94% 0.00 mm 0.00 W/m2
08:29 4.6 °C 3.7 °C 995.4 hPa SSE 32 km/h 19 km/h 94% 0.00 mm 0.00 W/m2
08:34 4.6 °C 3.7 °C 995.3 hPa SSE 34 km/h 15 km/h 94% 0.00 mm 0.00 W/m2
08:39 4.6 °C 3.7 °C 995.3 hPa SSE 35 km/h 21 km/h 94% 0.00 mm 0.00 W/m2
08:44 4.5 °C 3.6 °C 995.3 hPa SSE 32 km/h 20 km/h 94% 0.00 mm 0.00 W/m2
08:49 4.5 °C 3.6 °C 995.3 hPa SSE 37 km/h 20 km/h 94% 0.00 mm 0.00 W/m2
08:54 4.5 °C 3.6 °C 995.3 hPa SSE 37 km/h 21 km/h 94% 0.00 mm 0.00 W/m2
08:59 4.4 °C 3.6 °C 995.3 hPa SSE 37 km/h 22 km/h 94% 0.00 mm 0.00 W/m2
09:04 4.4 °C 3.6 °C 995.2 hPa SSE 32 km/h 17 km/h 94% 0.00 mm 0.00 W/m2
09:09 4.4 °C 3.6 °C 995.2 hPa SSE 44 km/h 18 km/h 94% 0.00 mm 0.00 W/m2
09:14 4.4 °C 3.6 °C 995.2 hPa SSE 44 km/h 23 km/h 94% 0.00 mm 0.00 W/m2
09:19 4.4 °C 3.6 °C 995.1 hPa SSE 35 km/h 21 km/h 94% 0.00 mm 0.00 W/m2
09:24 4.4 °C 3.6 °C 995.1 hPa SSE 42 km/h 19 km/h 94% 0.00 mm 0.00 W/m2
09:29 4.4 °C 3.5 °C 995.1 hPa SSE 43 km/h 21 km/h 94% 0.00 mm 0.00 W/m2
09:34 4.4 °C 3.5 °C 995.1 hPa SSE 32 km/h 16 km/h 94% 0.00 mm 0.00 W/m2
09:39 4.4 °C 3.5 °C 995.1 hPa SSE 32 km/h 17 km/h 94% 0.00 mm 0.00 W/m2
09:44 4.3 °C 3.4 °C 995.0 hPa South 37 km/h 24 km/h 94% 0.00 mm 0.00 W/m2
09:49 4.3 °C 3.4 °C 995.0 hPa SSE 32 km/h 17 km/h 94% 0.00 mm 0.00 W/m2
09:54 4.3 °C 3.4 °C 995.0 hPa SSE 35 km/h 14 km/h 94% 0.00 mm 0.00 W/m2
09:59 4.3 °C 3.4 °C 995.0 hPa SSE 33 km/h 15 km/h 94% 0.25 mm 0.00 W/m2
10:04 4.3 °C 3.4 °C 995.1 hPa SSE 34 km/h 19 km/h 94% 0.25 mm 0.00 W/m2
10:09 4.3 °C 3.4 °C 995.2 hPa SSE 34 km/h 25 km/h 94% 0.25 mm 0.00 W/m2
10:14 4.3 °C 3.4 °C 995.2 hPa SSE 31 km/h 15 km/h 94% 0.25 mm 0.00 W/m2
10:19 4.3 °C 3.4 °C 995.2 hPa SSE 28 km/h 13 km/h 94% 0.25 mm 0.00 W/m2
10:24 4.3 °C 3.4 °C 995.1 hPa SSE 34 km/h 18 km/h 94% 0.25 mm 0.00 W/m2
10:29 4.3 °C 3.4 °C 995.1 hPa SSE 33 km/h 19 km/h 94% 0.25 mm 0.00 W/m2
10:34 4.4 °C 3.5 °C 995.2 hPa SSE 30 km/h 14 km/h 94% 0.25 mm 0.00 W/m2
10:39 4.4 °C 3.5 °C 995.2 hPa SSE 30 km/h 15 km/h 94% 0.25 mm 0.00 W/m2
10:44 4.4 °C 3.5 °C 995.2 hPa South 30 km/h 14 km/h 94% 0.25 mm 0.00 W/m2
10:49 4.4 °C 3.6 °C 995.1 hPa South 35 km/h 16 km/h 94% 0.25 mm 0.00 W/m2
10:54 4.4 °C 3.6 °C 995.1 hPa SSE 32 km/h 19 km/h 94% 0.25 mm 0.00 W/m2
10:59 4.4 °C 3.6 °C 995.0 hPa SSE 26 km/h 16 km/h 94% 0.00 mm 0.00 W/m2
11:04 4.4 °C 3.6 °C 995.0 hPa SSE 23 km/h 12 km/h 94% 0.00 mm 0.00 W/m2
11:09 4.4 °C 3.6 °C 994.9 hPa South 30 km/h 16 km/h 94% 0.00 mm 0.00 W/m2
11:14 4.4 °C 3.6 °C 994.8 hPa SSE 24 km/h 12 km/h 94% 0.00 mm 0.00 W/m2
11:19 4.5 °C 3.6 °C 994.8 hPa SSE 24 km/h 11 km/h 94% 0.00 mm 0.00 W/m2
11:24 4.6 °C 3.7 °C 994.8 hPa South 24 km/h 14 km/h 94% 0.00 mm 0.00 W/m2
11:29 4.6 °C 3.7 °C 994.8 hPa SSE 26 km/h 16 km/h 94% 0.00 mm 0.00 W/m2
11:34 4.6 °C 3.7 °C 994.8 hPa South 30 km/h 18 km/h 94% 0.00 mm 0.00 W/m2
11:39 4.7 °C 3.8 °C 994.7 hPa SSE 32 km/h 13 km/h 94% 0.00 mm 0.00 W/m2
11:44 4.7 °C 3.8 °C 994.7 hPa SSE 35 km/h 18 km/h 94% 0.00 mm 0.00 W/m2
11:49 4.8 °C 3.9 °C 994.7 hPa South 33 km/h 17 km/h 94% 0.00 mm 0.00 W/m2
11:54 4.8 °C 3.9 °C 994.6 hPa South 21 km/h 13 km/h 94% 0.00 mm 0.00 W/m2
11:59 4.9 °C 4.0 °C 994.6 hPa SSE 26 km/h 13 km/h 94% 0.00 mm 0.00 W/m2
12:04 4.9 °C 4.1 °C 994.5 hPa SSE 32 km/h 13 km/h 94% 0.00 mm 0.00 W/m2
12:09 5.0 °C 4.1 °C 994.6 hPa South 29 km/h 13 km/h 94% 0.00 mm 0.00 W/m2
12:14 5.1 °C 4.2 °C 994.5 hPa SSE 32 km/h 15 km/h 94% 0.00 mm 0.00 W/m2
12:19 5.2 °C 4.3 °C 994.5 hPa South 32 km/h 12 km/h 94% 0.00 mm 0.00 W/m2
12:24 5.2 °C 4.3 °C 994.4 hPa SSE 28 km/h 11 km/h 94% 0.00 mm 0.00 W/m2
12:29 5.3 °C 4.4 °C 994.3 hPa SSE 26 km/h 15 km/h 94% 0.00 mm 0.00 W/m2
12:34 5.3 °C 4.4 °C 994.3 hPa SSE 28 km/h 13 km/h 94% 0.00 mm 0.00 W/m2
12:39 5.3 °C 4.4 °C 994.3 hPa SSE 26 km/h 12 km/h 94% 0.00 mm 0.00 W/m2
12:44 5.4 °C 4.5 °C 994.3 hPa South 32 km/h 15 km/h 94% 0.00 mm 0.00 W/m2
12:49 5.4 °C 4.6 °C 994.3 hPa SSE 32 km/h 19 km/h 94% 0.00 mm 0.00 W/m2
12:54 5.4 °C 4.6 °C 994.2 hPa SSE 28 km/h 14 km/h 94% 0.00 mm 0.00 W/m2
12:59 5.5 °C 4.4 °C 994.1 hPa South 26 km/h 15 km/h 93% 0.00 mm 0.00 W/m2
13:04 5.5 °C 4.4 °C 994.1 hPa SSE 32 km/h 16 km/h 93% 0.00 mm 0.00 W/m2
13:09 5.5 °C 4.4 °C 994.0 hPa South 30 km/h 12 km/h 93% 0.00 mm 0.00 W/m2
13:14 5.5 °C 4.4 °C 994.0 hPa SSE 30 km/h 13 km/h 93% 0.00 mm 0.00 W/m2
13:19 5.5 °C 4.4 °C 994.0 hPa SSE 32 km/h 17 km/h 93% 0.00 mm 0.00 W/m2
13:24 5.5 °C 4.4 °C 993.9 hPa SSE 30 km/h 16 km/h 93% 0.00 mm 0.00 W/m2
13:29 5.5 °C 4.4 °C 993.9 hPa SSE 30 km/h 15 km/h 93% 0.00 mm 0.00 W/m2
13:34 5.4 °C 4.4 °C 993.9 hPa South 30 km/h 16 km/h 93% 0.00 mm 0.00 W/m2
13:39 5.4 °C 4.3 °C 993.9 hPa SSE 34 km/h 11 km/h 93% 0.00 mm 0.00 W/m2
13:44 5.3 °C 4.3 °C 993.9 hPa SSE 33 km/h 14 km/h 93% 0.00 mm 0.00 W/m2
13:49 5.3 °C 4.2 °C 993.9 hPa SSE 32 km/h 14 km/h 93% 0.00 mm 0.00 W/m2
13:54 5.2 °C 4.1 °C 993.9 hPa SSE 29 km/h 16 km/h 92% 0.00 mm 0.00 W/m2
13:59 5.2 °C 4.1 °C 993.9 hPa SSE 30 km/h 14 km/h 92% 0.00 mm 0.00 W/m2
14:04 5.2 °C 4.0 °C 993.9 hPa SSE 32 km/h 13 km/h 92% 0.00 mm 0.00 W/m2
14:09 5.1 °C 3.9 °C 993.8 hPa SSE 26 km/h 12 km/h 92% 0.00 mm 0.00 W/m2
14:14 5.1 °C 3.9 °C 993.8 hPa SSE 35 km/h 16 km/h 92% 0.00 mm 0.00 W/m2
14:19 5.1 °C 3.9 °C 993.8 hPa SSE 30 km/h 18 km/h 92% 0.00 mm 0.00 W/m2
14:24 5.1 °C 3.9 °C 993.8 hPa SSE 24 km/h 13 km/h 92% 0.00 mm 0.00 W/m2
14:29 5.2 °C 4.0 °C 993.8 hPa SSE 28 km/h 15 km/h 92% 0.00 mm 0.00 W/m2
14:34 5.2 °C 4.0 °C 993.8 hPa SSE 26 km/h 12 km/h 92% 0.00 mm 0.00 W/m2
14:39 5.2 °C 4.1 °C 993.8 hPa SSE 26 km/h 10 km/h 92% 0.00 mm 0.00 W/m2
14:44 5.2 °C 4.1 °C 993.8 hPa SSE 26 km/h 13 km/h 92% 0.00 mm 0.00 W/m2
14:49 5.3 °C 4.1 °C 993.8 hPa SSE 19 km/h 12 km/h 92% 0.00 mm 0.00 W/m2
14:54 5.3 °C 4.1 °C 993.8 hPa SSE 26 km/h 13 km/h 92% 0.00 mm 0.00 W/m2
14:59 5.3 °C 4.1 °C 993.8 hPa SSE 26 km/h 13 km/h 92% 0.00 mm 0.00 W/m2
15:04 5.3 °C 4.1 °C 993.8 hPa SSE 26 km/h 12 km/h 92% 0.00 mm 0.00 W/m2
15:09 5.4 °C 4.2 °C 993.8 hPa SSE 19 km/h 12 km/h 92% 0.00 mm 0.00 W/m2
15:14 5.4 °C 4.2 °C 993.8 hPa SSE 21 km/h 12 km/h 92% 0.00 mm 0.00 W/m2
15:19 5.5 °C 4.2 °C 993.8 hPa SSE 24 km/h 13 km/h 92% 0.00 mm 0.00 W/m2
15:24 5.6 °C 4.2 °C 993.8 hPa SSE 24 km/h 12 km/h 91% 0.00 mm 0.00 W/m2
15:29 5.6 °C 4.3 °C 993.7 hPa SSE 26 km/h 11 km/h 91% 0.00 mm 0.00 W/m2
15:34 5.7 °C 4.3 °C 993.7 hPa SSE 19 km/h 10 km/h 91% 0.00 mm 0.00 W/m2
15:39 5.7 °C 4.4 °C 993.7 hPa SSE 19 km/h 10 km/h 91% 0.00 mm 0.00 W/m2
15:44 5.8 °C 4.4 °C 993.7 hPa SSE 19 km/h 10 km/h 91% 0.00 mm 0.00 W/m2
15:49 5.8 °C 4.4 °C 993.7 hPa SSE 26 km/h 13 km/h 91% 0.00 mm 0.00 W/m2
15:54 5.8 °C 4.3 °C 993.7 hPa SSE 19 km/h 10 km/h 90% 0.00 mm 0.00 W/m2
15:59 5.8 °C 4.3 °C 993.7 hPa SSE 17 km/h 9 km/h 90% 0.00 mm 0.00 W/m2
16:04 5.8 °C 4.3 °C 993.7 hPa SSE 17 km/h 6 km/h 90% 0.00 mm 0.00 W/m2
16:09 5.8 °C 4.3 °C 993.7 hPa SSE 23 km/h 11 km/h 90% 0.00 mm 0.00 W/m2
16:14 5.8 °C 4.3 °C 993.7 hPa SSE 23 km/h 9 km/h 90% 0.00 mm 0.00 W/m2
16:19 5.9 °C 4.4 °C 993.7 hPa SSE 22 km/h 9 km/h 90% 0.00 mm 0.00 W/m2
16:24 5.9 °C 4.4 °C 993.7 hPa SSE 21 km/h 12 km/h 90% 0.00 mm 0.00 W/m2
16:29 5.9 °C 4.4 °C 993.8 hPa SSE 20 km/h 9 km/h 90% 0.00 mm 0.00 W/m2
16:34 5.9 °C 4.4 °C 993.8 hPa SSE 19 km/h 9 km/h 90% 0.00 mm 0.00 W/m2
16:39 6.0 °C 4.5 °C 993.8 hPa SSE 17 km/h 10 km/h 90% 0.00 mm 0.00 W/m2
16:44 6.1 °C 4.4 °C 993.8 hPa SSE 23 km/h 9 km/h 89% 0.00 mm 0.00 W/m2
16:49 6.1 °C 4.4 °C 993.8 hPa SSE 22 km/h 9 km/h 89% 0.00 mm 0.00 W/m2
16:54 6.2 °C 4.5 °C 993.9 hPa SSE 19 km/h 13 km/h 89% 0.00 mm 0.00 W/m2
16:59 6.2 °C 4.5 °C 993.9 hPa SSE 19 km/h 13 km/h 89% 0.00 mm 0.00 W/m2
17:04 6.2 °C 4.6 °C 993.9 hPa SSE 19 km/h 11 km/h 89% 0.00 mm 0.00 W/m2
17:09 6.3 °C 4.6 °C 993.9 hPa SSE 17 km/h 9 km/h 89% 0.00 mm 0.00 W/m2
17:14 6.3 °C 4.7 °C 993.9 hPa SSE 23 km/h 12 km/h 89% 0.00 mm 0.00 W/m2
17:19 6.4 °C 4.7 °C 993.9 hPa SSE 19 km/h 12 km/h 89% 0.00 mm 0.00 W/m2
17:24 6.4 °C 4.8 °C 993.9 hPa SSE 19 km/h 9 km/h 89% 0.00 mm 0.00 W/m2
17:29 6.5 °C 4.8 °C 993.9 hPa SSE 21 km/h 8 km/h 89% 0.00 mm 0.00 W/m2
17:34 6.6 °C 4.9 °C 993.9 hPa SSE 24 km/h 13 km/h 89% 0.00 mm 0.00 W/m2
17:39 6.6 °C 4.9 °C 993.9 hPa SSE 21 km/h 8 km/h 89% 0.00 mm 0.00 W/m2
17:44 6.7 °C 4.8 °C 993.9 hPa SSE 21 km/h 12 km/h 88% 0.00 mm 0.00 W/m2
17:49 6.7 °C 4.9 °C 994.0 hPa SSE 19 km/h 10 km/h 88% 0.00 mm 0.00 W/m2
17:54 6.8 °C 4.9 °C 994.0 hPa SSE 23 km/h 10 km/h 88% 0.00 mm 0.00 W/m2
17:59 6.8 °C 5.0 °C 994.0 hPa SSE 21 km/h 11 km/h 88% 0.00 mm 0.00 W/m2
18:04 6.9 °C 5.1 °C 994.0 hPa SSE 19 km/h 11 km/h 88% 0.00 mm 0.00 W/m2
18:09 6.9 °C 5.1 °C 994.0 hPa SSE 21 km/h 12 km/h 88% 0.00 mm 0.00 W/m2
18:14 7.0 °C 5.2 °C 994.1 hPa SSE 23 km/h 8 km/h 88% 0.00 mm 0.00 W/m2
18:19 7.1 °C 5.2 °C 994.1 hPa SSE 23 km/h 11 km/h 88% 0.00 mm 0.00 W/m2
18:24 7.1 °C 5.3 °C 994.1 hPa SSE 22 km/h 13 km/h 88% 0.00 mm 0.00 W/m2
18:29 7.2 °C 5.2 °C 994.1 hPa SSE 21 km/h 10 km/h 87% 0.00 mm 0.00 W/m2
18:34 7.2 °C 5.2 °C 994.1 hPa SSE 26 km/h 14 km/h 87% 0.00 mm 0.00 W/m2
18:39 7.2 °C 5.2 °C 994.1 hPa SSE 26 km/h 13 km/h 87% 0.00 mm 0.00 W/m2
18:44 7.3 °C 5.2 °C 994.1 hPa SSE 28 km/h 15 km/h 87% 0.00 mm 0.00 W/m2
18:49 7.3 °C 5.2 °C 994.2 hPa SSE 26 km/h 11 km/h 86% 0.00 mm 0.00 W/m2
18:54 7.4 °C 5.2 °C 994.2 hPa SE 19 km/h 8 km/h 86% 0.00 mm 0.00 W/m2
18:59 7.3 °C 5.2 °C 994.2 hPa SSE 19 km/h 13 km/h 86% 0.00 mm 0.00 W/m2
19:04 7.3 °C 5.2 °C 994.2 hPa SSE 26 km/h 13 km/h 86% 0.00 mm 0.00 W/m2
19:09 7.3 °C 4.9 °C 994.1 hPa SSE 23 km/h 13 km/h 85% 0.00 mm 0.00 W/m2
19:14 7.2 °C 4.9 °C 994.1 hPa SSE 28 km/h 13 km/h 85% 0.00 mm 0.00 W/m2
19:19 7.2 °C 4.9 °C 994.1 hPa SSE 30 km/h 14 km/h 85% 0.00 mm 0.00 W/m2
19:24 7.2 °C 4.9 °C 994.1 hPa South 27 km/h 13 km/h 85% 0.00 mm 0.00 W/m2
19:29 7.3 °C 4.8 °C 994.1 hPa SSE 28 km/h 13 km/h 84% 0.00 mm 0.00 W/m2
19:34 7.4 °C 4.8 °C 994.1 hPa SSE 32 km/h 13 km/h 84% 0.00 mm 0.00 W/m2
19:39 7.4 °C 4.9 °C 994.1 hPa SSE 32 km/h 13 km/h 84% 0.00 mm 0.00 W/m2
19:44 7.4 °C 4.7 °C 994.0 hPa SSE 28 km/h 17 km/h 83% 0.00 mm 0.00 W/m2
19:49 7.4 °C 4.7 °C 994.1 hPa SSE 30 km/h 15 km/h 83% 0.00 mm 0.00 W/m2
19:54 7.4 °C 4.7 °C 994.1 hPa SSE 21 km/h 12 km/h 83% 0.00 mm 0.00 W/m2
19:59 7.4 °C 4.7 °C 994.1 hPa SSE 30 km/h 13 km/h 83% 0.00 mm 0.00 W/m2
20:04 7.3 °C 4.6 °C 994.1 hPa SSE 20 km/h 11 km/h 83% 0.00 mm 0.00 W/m2
20:09 7.2 °C 4.5 °C 994.0 hPa SSE 21 km/h 13 km/h 83% 0.00 mm 0.00 W/m2
20:14 7.1 °C 4.4 °C 993.9 hPa SSE 21 km/h 12 km/h 83% 0.00 mm 0.00 W/m2
20:19 7.0 °C 4.3 °C 994.0 hPa SSE 23 km/h 12 km/h 83% 0.00 mm 0.00 W/m2
20:24 6.9 °C 4.3 °C 994.0 hPa SSE 26 km/h 14 km/h 83% 0.00 mm 0.00 W/m2
20:29 6.9 °C 4.3 °C 993.9 hPa SSE 30 km/h 12 km/h 83% 0.00 mm 0.00 W/m2
20:34 6.9 °C 4.3 °C 993.9 hPa SSE 30 km/h 12 km/h 83% 0.00 mm 0.00 W/m2
20:39 6.9 °C 4.3 °C 993.9 hPa SSE 28 km/h 12 km/h 83% 0.00 mm 0.00 W/m2
20:44 6.9 °C 4.3 °C 993.8 hPa SSE 30 km/h 14 km/h 83% 0.00 mm 0.00 W/m2
20:49 6.9 °C 4.2 °C 993.8 hPa SSE 28 km/h 12 km/h 83% 0.00 mm 0.00 W/m2
20:54 6.8 °C 4.2 °C 993.8 hPa SSE 28 km/h 13 km/h 83% 0.00 mm 0.00 W/m2
20:59 6.8 °C 4.3 °C 993.8 hPa SSE 19 km/h 9 km/h 84% 0.25 mm 0.00 W/m2
21:04 6.7 °C 4.2 °C 993.8 hPa SSE 30 km/h 11 km/h 84% 0.25 mm 0.00 W/m2
21:09 6.6 °C 4.3 °C 993.8 hPa SSE 24 km/h 9 km/h 85% 0.25 mm 0.00 W/m2
21:14 6.6 °C 4.2 °C 993.8 hPa SSE 24 km/h 12 km/h 85% 0.25 mm 0.00 W/m2
21:19 6.4 °C 4.1 °C 993.8 hPa SSE 19 km/h 11 km/h 85% 0.25 mm 0.00 W/m2
21:24 6.3 °C 4.0 °C 993.8 hPa SSE 21 km/h 12 km/h 85% 0.25 mm 0.00 W/m2
21:29 6.3 °C 3.9 °C 993.8 hPa SSE 19 km/h 11 km/h 85% 0.25 mm 0.00 W/m2
21:34 6.3 °C 3.9 °C 993.8 hPa SSE 24 km/h 11 km/h 85% 0.25 mm 0.00 W/m2
21:39 6.3 °C 4.0 °C 993.8 hPa SSE 21 km/h 12 km/h 85% 0.25 mm 0.00 W/m2
21:44 6.4 °C 4.1 °C 993.7 hPa SSE 21 km/h 14 km/h 85% 0.25 mm 0.00 W/m2
21:49 6.5 °C 4.2 °C 993.6 hPa SSE 23 km/h 11 km/h 85% 0.25 mm 0.00 W/m2
21:54 6.6 °C 4.1 °C 993.7 hPa SSE 21 km/h 11 km/h 84% 0.25 mm 0.00 W/m2
21:59 6.6 °C 4.1 °C 993.7 hPa SSE 21 km/h 11 km/h 84% 0.25 mm 0.00 W/m2
22:04 6.6 °C 4.1 °C 993.7 hPa SSE 23 km/h 12 km/h 84% 0.00 mm 0.00 W/m2
22:09 6.6 °C 3.9 °C 993.7 hPa SSE 22 km/h 13 km/h 83% 0.00 mm 0.00 W/m2
22:14 6.6 °C 3.9 °C 993.7 hPa SE 24 km/h 14 km/h 83% 0.00 mm 0.00 W/m2
22:19 6.6 °C 3.9 °C 993.7 hPa SSE 24 km/h 14 km/h 83% 0.00 mm 0.00 W/m2
22:24 6.6 °C 3.9 °C 993.7 hPa SSE 29 km/h 9 km/h 83% 0.00 mm 0.00 W/m2
22:29 6.6 °C 4.1 °C 993.7 hPa SSE 30 km/h 15 km/h 84% 0.00 mm 0.00 W/m2
22:34 6.5 °C 4.0 °C 993.6 hPa SSE 28 km/h 14 km/h 84% 0.25 mm 0.00 W/m2
22:39 6.4 °C 4.1 °C 993.6 hPa SSE 28 km/h 13 km/h 85% 0.51 mm 0.00 W/m2
22:44 6.3 °C 4.0 °C 993.6 hPa SSE 26 km/h 12 km/h 85% 0.51 mm 0.00 W/m2
22:49 6.2 °C 4.1 °C 993.6 hPa SSE 24 km/h 14 km/h 86% 0.51 mm 0.00 W/m2
22:54 6.2 °C 4.0 °C 993.7 hPa SSE 23 km/h 14 km/h 86% 0.51 mm 0.00 W/m2
22:59 6.2 °C 4.0 °C 993.7 hPa SSE 23 km/h 13 km/h 86% 0.51 mm 0.00 W/m2
23:04 6.1 °C 3.9 °C 993.6 hPa SSE 24 km/h 12 km/h 86% 0.51 mm 0.00 W/m2
23:09 6.1 °C 3.9 °C 993.5 hPa SSE 20 km/h 11 km/h 86% 0.51 mm 0.00 W/m2
Vejrstation Sortsø Strand
Compliments of Weather Underground - 2.25 mb

© 2006-2021 strandvejr.dk